Terminal Aerodrome Forecast
Issued by NWS Portland, OR

Home | Current Version | Previous Version | Text Only | Print | Product List | Glossary On
Versions: 1 2 3 4 5 6 7 8 9 10 11 12 13 14 15 16 17 18 19 20 21 22 23 24 25 26 27 28 29 30 31 32 33 34 35 36 37 38 39 40 41 42 43
000
FTUS46 KPQR 010801 AAB
TAFAST
TAF AMD
KAST 010801Z 0108/0206 21007KT P6SM VCSH OVC045
     FM011100 22006KT P6SM OVC020
     FM011300 21009KT 4SM BR OVC007
     FM011600 21012G18KT 6SM BR BKN012 OVC021
     FM012000 22012KT 5SM -RA BR OVC025=

USA.gov is the U.S. government's official web portal to all federal, state and local government web resources and services.